sensor_id;sensor_type;location;lat;lon;timestamp;temperature;humidity
53520;DHT22;39397;53.204;5.778;2023-04-21T00:00:56;8.90;99.90
53520;DHT22;39397;53.204;5.778;2023-04-21T00:03:22;10.00;99.90
53520;DHT22;39397;53.204;5.778;2023-04-21T00:05:54;9.40;99.90
53520;DHT22;39397;53.204;5.778;2023-04-21T00:08:20;8.90;99.90
53520;DHT22;39397;53.204;5.778;2023-04-21T00:10:46;8.90;99.90
53520;DHT22;39397;53.204;5.778;2023-04-21T00:13:12;9.40;99.90
53520;DHT22;39397;53.204;5.778;2023-04-21T00:15:38;8.80;99.90
53520;DHT22;39397;53.204;5.778;2023-04-21T00:18:04;8.80;99.90
53520;DHT22;39397;53.204;5.778;2023-04-21T00:20:30;8.80;99.90
53520;DHT22;39397;53.204;5.778;2023-04-21T00:22:57;8.70;99.90
53520;DHT22;39397;53.204;5.778;2023-04-21T00:25:23;9.10;99.90
53520;DHT22;39397;53.204;5.778;2023-04-21T00:27:49;8.60;99.90
53520;DHT22;39397;53.204;5.778;2023-04-21T00:30:15;8.70;99.90
53520;DHT22;39397;53.204;5.778;2023-04-21T00:32:41;9.90;99.90
53520;DHT22;39397;53.204;5.778;2023-04-21T00:35:07;8.70;99.90
53520;DHT22;39397;53.204;5.778;2023-04-21T00:37:33;8.60;99.90
53520;DHT22;39397;53.204;5.778;2023-04-21T00:39:58;8.60;99.90
53520;DHT22;39397;53.204;5.778;2023-04-21T00:42:24;8.60;99.90
53520;DHT22;39397;53.204;5.778;2023-04-21T00:44:50;8.50;99.90
53520;DHT22;39397;53.204;5.778;2023-04-21T00:47:17;8.50;99.90
53520;DHT22;39397;53.204;5.778;2023-04-21T00:49:43;8.60;99.90
53520;DHT22;39397;53.204;5.778;2023-04-21T00:52:10;8.70;99.90
53520;DHT22;39397;53.204;5.778;2023-04-21T00:54:36;8.70;99.90
53520;DHT22;39397;53.204;5.778;2023-04-21T00:57:02;8.60;99.90
53520;DHT22;39397;53.204;5.778;2023-04-21T00:59:29;9.70;99.90
53520;DHT22;39397;53.204;5.778;2023-04-21T01:01:55;8.50;99.90
53520;DHT22;39397;53.204;5.778;2023-04-21T01:04:21;8.80;99.90
53520;DHT22;39397;53.204;5.778;2023-04-21T01:06:47;8.50;99.90
53520;DHT22;39397;53.204;5.778;2023-04-21T01:09:13;8.40;99.90
53520;DHT22;39397;53.204;5.778;2023-04-21T01:11:39;7.60;99.90
53520;DHT22;39397;53.204;5.778;2023-04-21T01:14:05;8.50;99.90
53520;DHT22;39397;53.204;5.778;2023-04-21T01:16:31;9.00;99.90
53520;DHT22;39397;53.204;5.778;2023-04-21T01:18:59;8.80;99.90
53520;DHT22;39397;53.204;5.778;2023-04-21T01:21:25;8.50;99.90
53520;DHT22;39397;53.204;5.778;2023-04-21T01:23:56;8.40;99.90
53520;DHT22;39397;53.204;5.778;2023-04-21T01:26:22;8.30;99.90
53520;DHT22;39397;53.204;5.778;2023-04-21T01:28:48;9.00;99.90
53520;DHT22;39397;53.204;5.778;2023-04-21T01:31:20;8.30;99.90
53520;DHT22;39397;53.204;5.778;2023-04-21T01:33:46;8.30;99.90
53520;DHT22;39397;53.204;5.778;2023-04-21T01:36:12;8.50;99.90
53520;DHT22;39397;53.204;5.778;2023-04-21T01:38:39;8.40;99.90
53520;DHT22;39397;53.204;5.778;2023-04-21T01:41:05;9.40;99.90
53520;DHT22;39397;53.204;5.778;2023-04-21T01:43:31;8.60;99.90
53520;DHT22;39397;53.204;5.778;2023-04-21T01:45:57;8.70;99.90
53520;DHT22;39397;53.204;5.778;2023-04-21T01:48:22;8.30;99.90
53520;DHT22;39397;53.204;5.778;2023-04-21T01:50:48;8.20;99.90
53520;DHT22;39397;53.204;5.778;2023-04-21T01:53:14;8.10;99.90
53520;DHT22;39397;53.204;5.778;2023-04-21T01:55:39;8.10;99.90
53520;DHT22;39397;53.204;5.778;2023-04-21T01:58:05;8.10;99.90
53520;DHT22;39397;53.204;5.778;2023-04-21T02:00:31;8.60;99.90
53520;DHT22;39397;53.204;5.778;2023-04-21T02:02:56;9.00;99.90
53520;DHT22;39397;53.204;5.778;2023-04-21T02:05:22;8.30;99.90
53520;DHT22;39397;53.204;5.778;2023-04-21T02:07:48;8.10;99.90
53520;DHT22;39397;53.204;5.778;2023-04-21T02:10:13;8.70;99.90
53520;DHT22;39397;53.204;5.778;2023-04-21T02:12:39;8.10;99.90
53520;DHT22;39397;53.204;5.778;2023-04-21T02:15:07;8.10;99.90
53520;DHT22;39397;53.204;5.778;2023-04-21T02:17:33;8.00;99.90
53520;DHT22;39397;53.204;5.778;2023-04-21T02:19:59;8.20;99.90
53520;DHT22;39397;53.204;5.778;2023-04-21T02:22:24;8.10;99.90
53520;DHT22;39397;53.204;5.778;2023-04-21T02:24:50;8.10;99.90
53520;DHT22;39397;53.204;5.778;2023-04-21T02:27:16;8.00;99.90
53520;DHT22;39397;53.204;5.778;2023-04-21T02:29:41;8.80;99.90
53520;DHT22;39397;53.204;5.778;2023-04-21T02:32:08;8.10;99.90
53520;DHT22;39397;53.204;5.778;2023-04-21T02:34:33;8.60;99.90
53520;DHT22;39397;53.204;5.778;2023-04-21T02:36:59;8.00;99.90
53520;DHT22;39397;53.204;5.778;2023-04-21T02:39:25;8.10;99.90
53520;DHT22;39397;53.204;5.778;2023-04-21T02:41:51;7.90;99.90
53520;DHT22;39397;53.204;5.778;2023-04-21T02:44:17;8.00;99.90
53520;DHT22;39397;53.204;5.778;2023-04-21T02:46:42;7.90;99.90
53520;DHT22;39397;53.204;5.778;2023-04-21T02:49:09;8.00;99.90
53520;DHT22;39397;53.204;5.778;2023-04-21T02:51:35;8.90;99.90
53520;DHT22;39397;53.204;5.778;2023-04-21T02:54:01;7.90;99.90
53520;DHT22;39397;53.204;5.778;2023-04-21T02:56:27;7.80;99.90
53520;DHT22;39397;53.204;5.778;2023-04-21T02:58:53;8.10;99.90
53520;DHT22;39397;53.204;5.778;2023-04-21T03:01:18;7.80;99.90
53520;DHT22;39397;53.204;5.778;2023-04-21T03:03:44;9.20;99.90
53520;DHT22;39397;53.204;5.778;2023-04-21T03:06:10;7.80;99.90
53520;DHT22;39397;53.204;5.778;2023-04-21T03:08:36;6.20;99.90
53520;DHT22;39397;53.204;5.778;2023-04-21T03:11:01;7.70;99.90
53520;DHT22;39397;53.204;5.778;2023-04-21T03:13:27;8.00;99.90
53520;DHT22;39397;53.204;5.778;2023-04-21T03:15:53;7.80;99.90
53520;DHT22;39397;53.204;5.778;2023-04-21T03:18:18;8.00;99.90
53520;DHT22;39397;53.204;5.778;2023-04-21T03:20:44;7.70;99.90
53520;DHT22;39397;53.204;5.778;2023-04-21T03:23:10;7.70;99.90
53520;DHT22;39397;53.204;5.778;2023-04-21T03:25:37;7.70;99.90
53520;DHT22;39397;53.204;5.778;2023-04-21T03:28:03;7.90;99.90
53520;DHT22;39397;53.204;5.778;2023-04-21T03:30:32;7.80;99.90
53520;DHT22;39397;53.204;5.778;2023-04-21T03:32:57;7.80;99.90
53520;DHT22;39397;53.204;5.778;2023-04-21T03:35:23;8.50;99.90
53520;DHT22;39397;53.204;5.778;2023-04-21T03:37:49;8.10;99.90
53520;DHT22;39397;53.204;5.778;2023-04-21T03:40:15;7.80;99.90
53520;DHT22;39397;53.204;5.778;2023-04-21T03:42:41;7.80;99.90
53520;DHT22;39397;53.204;5.778;2023-04-21T03:45:08;7.70;99.90
53520;DHT22;39397;53.204;5.778;2023-04-21T03:47:34;7.90;99.90
53520;DHT22;39397;53.204;5.778;2023-04-21T03:50:02;8.70;99.90
53520;DHT22;39397;53.204;5.778;2023-04-21T03:52:28;7.90;99.90
53520;DHT22;39397;53.204;5.778;2023-04-21T03:54:53;7.80;99.90
53520;DHT22;39397;53.204;5.778;2023-04-21T03:57:19;7.80;99.90
53520;DHT22;39397;53.204;5.778;2023-04-21T03:59:45;8.60;99.90
53520;DHT22;39397;53.204;5.778;2023-04-21T04:02:10;8.90;99.90
53520;DHT22;39397;53.204;5.778;2023-04-21T04:04:36;7.80;99.90
53520;DHT22;39397;53.204;5.778;2023-04-21T04:07:04;7.70;99.90
53520;DHT22;39397;53.204;5.778;2023-04-21T04:09:32;8.20;99.90
53520;DHT22;39397;53.204;5.778;2023-04-21T04:11:58;7.70;99.90
53520;DHT22;39397;53.204;5.778;2023-04-21T04:14:30;8.70;99.90
53520;DHT22;39397;53.204;5.778;2023-04-21T04:16:56;8.20;99.90
53520;DHT22;39397;53.204;5.778;2023-04-21T04:19:22;7.70;99.90
53520;DHT22;39397;53.204;5.778;2023-04-21T04:21:48;7.70;99.90
53520;DHT22;39397;53.204;5.778;2023-04-21T04:24:14;7.80;99.90
53520;DHT22;39397;53.204;5.778;2023-04-21T04:26:40;7.60;99.90
53520;DHT22;39397;53.204;5.778;2023-04-21T04:29:05;7.60;99.90
53520;DHT22;39397;53.204;5.778;2023-04-21T04:31:35;7.60;99.90
53520;DHT22;39397;53.204;5.778;2023-04-21T04:34:00;7.80;99.90
53520;DHT22;39397;53.204;5.778;2023-04-21T04:36:26;7.60;99.90
53520;DHT22;39397;53.204;5.778;2023-04-21T04:38:52;7.70;99.90
53520;DHT22;39397;53.204;5.778;2023-04-21T04:41:18;7.90;99.90
53520;DHT22;39397;53.204;5.778;2023-04-21T04:43:45;7.60;99.90
53520;DHT22;39397;53.204;5.778;2023-04-21T04:46:14;8.50;99.90
53520;DHT22;39397;53.204;5.778;2023-04-21T04:48:39;7.90;99.90
53520;DHT22;39397;53.204;5.778;2023-04-21T04:51:05;7.80;99.90
53520;DHT22;39397;53.204;5.778;2023-04-21T04:53:31;8.00;99.90
53520;DHT22;39397;53.204;5.778;2023-04-21T04:55:58;9.10;99.90
53520;DHT22;39397;53.204;5.778;2023-04-21T04:58:24;7.90;99.90
53520;DHT22;39397;53.204;5.778;2023-04-21T05:00:50;8.90;99.90
53520;DHT22;39397;53.204;5.778;2023-04-21T05:03:15;6.70;99.90
53520;DHT22;39397;53.204;5.778;2023-04-21T05:05:41;8.20;99.90
53520;DHT22;39397;53.204;5.778;2023-04-21T05:08:07;8.40;99.90
53520;DHT22;39397;53.204;5.778;2023-04-21T05:10:33;8.10;99.90
53520;DHT22;39397;53.204;5.778;2023-04-21T05:12:59;8.10;99.90
53520;DHT22;39397;53.204;5.778;2023-04-21T05:15:25;8.10;99.90
53520;DHT22;39397;53.204;5.778;2023-04-21T05:17:50;8.30;99.90
53520;DHT22;39397;53.204;5.778;2023-04-21T05:20:24;8.30;99.90
53520;DHT22;39397;53.204;5.778;2023-04-21T05:22:50;8.40;99.90
53520;DHT22;39397;53.204;5.778;2023-04-21T05:25:16;8.30;99.90
53520;DHT22;39397;53.204;5.778;2023-04-21T05:27:42;8.40;99.90
53520;DHT22;39397;53.204;5.778;2023-04-21T05:30:08;8.40;99.90
53520;DHT22;39397;53.204;5.778;2023-04-21T05:32:34;8.50;99.90
53520;DHT22;39397;53.204;5.778;2023-04-21T05:35:00;9.00;99.90
53520;DHT22;39397;53.204;5.778;2023-04-21T05:37:30;8.70;99.90
53520;DHT22;39397;53.204;5.778;2023-04-21T05:39:56;8.70;99.90
53520;DHT22;39397;53.204;5.778;2023-04-21T05:42:27;8.60;99.90
53520;DHT22;39397;53.204;5.778;2023-04-21T05:44:53;8.70;99.90
53520;DHT22;39397;53.204;5.778;2023-04-21T05:47:19;8.80;99.90
53520;DHT22;39397;53.204;5.778;2023-04-21T05:49:50;8.60;99.90
53520;DHT22;39397;53.204;5.778;2023-04-21T05:52:18;9.20;99.90
53520;DHT22;39397;53.204;5.778;2023-04-21T05:54:45;8.70;99.90
53520;DHT22;39397;53.204;5.778;2023-04-21T05:57:11;8.70;99.90
53520;DHT22;39397;53.204;5.778;2023-04-21T05:59:37;8.80;99.90
53520;DHT22;39397;53.204;5.778;2023-04-21T06:02:03;8.80;99.90
53520;DHT22;39397;53.204;5.778;2023-04-21T06:04:28;8.90;99.90
53520;DHT22;39397;53.204;5.778;2023-04-21T06:06:54;9.30;99.90
53520;DHT22;39397;53.204;5.778;2023-04-21T06:09:20;8.90;99.90
53520;DHT22;39397;53.204;5.778;2023-04-21T06:11:46;9.00;99.90
53520;DHT22;39397;53.204;5.778;2023-04-21T06:14:11;9.20;99.90
53520;DHT22;39397;53.204;5.778;2023-04-21T06:16:37;9.00;99.90
53520;DHT22;39397;53.204;5.778;2023-04-21T06:19:03;9.10;99.90
53520;DHT22;39397;53.204;5.778;2023-04-21T06:21:29;9.30;99.90
53520;DHT22;39397;53.204;5.778;2023-04-21T06:23:55;9.20;99.90
53520;DHT22;39397;53.204;5.778;2023-04-21T06:26:21;9.20;99.90
53520;DHT22;39397;53.204;5.778;2023-04-21T06:28:46;9.40;99.90
53520;DHT22;39397;53.204;5.778;2023-04-21T06:31:12;9.50;99.90
53520;DHT22;39397;53.204;5.778;2023-04-21T06:33:41;9.50;99.90
53520;DHT22;39397;53.204;5.778;2023-04-21T06:36:08;9.50;99.90
53520;DHT22;39397;53.204;5.778;2023-04-21T06:38:34;9.80;99.90
53520;DHT22;39397;53.204;5.778;2023-04-21T06:41:02;9.70;99.90
53520;DHT22;39397;53.204;5.778;2023-04-21T06:43:35;9.70;99.90
53520;DHT22;39397;53.204;5.778;2023-04-21T06:46:03;9.90;99.90
53520;DHT22;39397;53.204;5.778;2023-04-21T06:48:28;9.90;99.90
53520;DHT22;39397;53.204;5.778;2023-04-21T06:50:54;10.10;99.90
53520;DHT22;39397;53.204;5.778;2023-04-21T06:53:20;10.10;99.90
53520;DHT22;39397;53.204;5.778;2023-04-21T06:55:46;10.20;99.90
53520;DHT22;39397;53.204;5.778;2023-04-21T06:58:13;10.30;99.90
53520;DHT22;39397;53.204;5.778;2023-04-21T07:00:39;10.30;99.90
53520;DHT22;39397;53.204;5.778;2023-04-21T07:03:04;10.40;99.90
53520;DHT22;39397;53.204;5.778;2023-04-21T07:05:31;10.50;99.90
53520;DHT22;39397;53.204;5.778;2023-04-21T07:07:57;10.40;99.90
53520;DHT22;39397;53.204;5.778;2023-04-21T07:10:27;10.50;99.90
53520;DHT22;39397;53.204;5.778;2023-04-21T07:12:54;10.50;99.90
53520;DHT22;39397;53.204;5.778;2023-04-21T07:15:22;10.50;99.90
53520;DHT22;39397;53.204;5.778;2023-04-21T07:17:48;10.60;99.90
53520;DHT22;39397;53.204;5.778;2023-04-21T07:20:14;10.80;99.90
53520;DHT22;39397;53.204;5.778;2023-04-21T07:22:43;10.80;99.90
53520;DHT22;39397;53.204;5.778;2023-04-21T07:25:09;12.80;99.90
53520;DHT22;39397;53.204;5.778;2023-04-21T07:27:38;11.10;99.90
53520;DHT22;39397;53.204;5.778;2023-04-21T07:30:04;11.30;99.90
53520;DHT22;39397;53.204;5.778;2023-04-21T07:32:30;11.40;99.90
53520;DHT22;39397;53.204;5.778;2023-04-21T07:34:57;11.40;99.90
53520;DHT22;39397;53.204;5.778;2023-04-21T07:37:23;11.50;99.90
53520;DHT22;39397;53.204;5.778;2023-04-21T07:39:48;11.60;99.90
53520;DHT22;39397;53.204;5.778;2023-04-21T07:42:14;11.50;99.90
53520;DHT22;39397;53.204;5.778;2023-04-21T07:44:43;11.40;99.90
53520;DHT22;39397;53.204;5.778;2023-04-21T07:47:08;11.50;99.90
53520;DHT22;39397;53.204;5.778;2023-04-21T07:49:34;11.70;99.90
53520;DHT22;39397;53.204;5.778;2023-04-21T07:52:00;11.60;99.90
53520;DHT22;39397;53.204;5.778;2023-04-21T07:54:26;11.70;99.90
53520;DHT22;39397;53.204;5.778;2023-04-21T07:56:51;11.80;99.90
53520;DHT22;39397;53.204;5.778;2023-04-21T07:59:17;11.80;99.90
53520;DHT22;39397;53.204;5.778;2023-04-21T08:01:43;12.00;99.90
53520;DHT22;39397;53.204;5.778;2023-04-21T08:04:08;12.10;99.90
53520;DHT22;39397;53.204;5.778;2023-04-21T08:06:34;12.20;99.90
53520;DHT22;39397;53.204;5.778;2023-04-21T08:09:00;12.30;99.90
53520;DHT22;39397;53.204;5.778;2023-04-21T08:11:26;12.40;99.90
53520;DHT22;39397;53.204;5.778;2023-04-21T08:13:53;12.70;99.90
53520;DHT22;39397;53.204;5.778;2023-04-21T08:16:19;12.70;99.90
53520;DHT22;39397;53.204;5.778;2023-04-21T08:18:45;13.00;99.90
53520;DHT22;39397;53.204;5.778;2023-04-21T08:21:10;13.00;99.90
53520;DHT22;39397;53.204;5.778;2023-04-21T08:23:36;13.00;99.90
53520;DHT22;39397;53.204;5.778;2023-04-21T08:26:02;13.20;99.90
53520;DHT22;39397;53.204;5.778;2023-04-21T08:28:28;13.30;99.90
53520;DHT22;39397;53.204;5.778;2023-04-21T08:30:54;13.40;99.90
53520;DHT22;39397;53.204;5.778;2023-04-21T08:33:19;13.60;99.90
53520;DHT22;39397;53.204;5.778;2023-04-21T08:35:45;13.40;99.90
53520;DHT22;39397;53.204;5.778;2023-04-21T08:38:11;13.60;99.90
53520;DHT22;39397;53.204;5.778;2023-04-21T08:40:37;13.70;99.90
53520;DHT22;39397;53.204;5.778;2023-04-21T08:43:04;13.80;99.90
53520;DHT22;39397;53.204;5.778;2023-04-21T08:45:31;14.00;99.90
53520;DHT22;39397;53.204;5.778;2023-04-21T08:47:59;14.00;99.90
53520;DHT22;39397;53.204;5.778;2023-04-21T08:50:30;14.20;99.90
53520;DHT22;39397;53.204;5.778;2023-04-21T08:52:56;14.30;99.90
53520;DHT22;39397;53.204;5.778;2023-04-21T08:55:29;14.30;99.90
53520;DHT22;39397;53.204;5.778;2023-04-21T08:57:55;14.30;99.90
53520;DHT22;39397;53.204;5.778;2023-04-21T09:00:21;14.50;99.90
53520;DHT22;39397;53.204;5.778;2023-04-21T09:02:58;14.60;99.90
53520;DHT22;39397;53.204;5.778;2023-04-21T09:05:26;14.70;99.90
53520;DHT22;39397;53.204;5.778;2023-04-21T09:08:12;14.70;99.90
53520;DHT22;39397;53.204;5.778;2023-04-21T09:10:42;14.80;99.90
53520;DHT22;39397;53.204;5.778;2023-04-21T09:13:09;14.80;99.90
53520;DHT22;39397;53.204;5.778;2023-04-21T09:15:39;14.90;99.90
53520;DHT22;39397;53.204;5.778;2023-04-21T09:18:17;14.90;99.90
53520;DHT22;39397;53.204;5.778;2023-04-21T09:20:44;15.00;99.90
53520;DHT22;39397;53.204;5.778;2023-04-21T09:23:11;15.00;99.90
53520;DHT22;39397;53.204;5.778;2023-04-21T09:25:39;15.10;99.90
53520;DHT22;39397;53.204;5.778;2023-04-21T09:28:12;15.20;99.90
53520;DHT22;39397;53.204;5.778;2023-04-21T09:30:40;15.40;99.90
53520;DHT22;39397;53.204;5.778;2023-04-21T09:33:07;15.40;99.90
53520;DHT22;39397;53.204;5.778;2023-04-21T09:35:36;15.50;99.90
53520;DHT22;39397;53.204;5.778;2023-04-21T09:38:11;15.50;99.90
53520;DHT22;39397;53.204;5.778;2023-04-21T09:40:37;15.60;99.90
53520;DHT22;39397;53.204;5.778;2023-04-21T09:43:05;15.60;99.90
53520;DHT22;39397;53.204;5.778;2023-04-21T09:45:31;15.70;99.90
53520;DHT22;39397;53.204;5.778;2023-04-21T09:47:58;15.60;99.90
53520;DHT22;39397;53.204;5.778;2023-04-21T09:50:26;15.70;99.90
53520;DHT22;39397;53.204;5.778;2023-04-21T09:52:53;15.80;99.90
53520;DHT22;39397;53.204;5.778;2023-04-21T09:55:32;16.10;99.90
53520;DHT22;39397;53.204;5.778;2023-04-21T09:57:59;16.10;99.90
53520;DHT22;39397;53.204;5.778;2023-04-21T10:00:27;16.30;99.90
53520;DHT22;39397;53.204;5.778;2023-04-21T10:02:54;16.30;99.90
53520;DHT22;39397;53.204;5.778;2023-04-21T10:05:22;16.50;99.90
53520;DHT22;39397;53.204;5.778;2023-04-21T10:07:48;16.50;99.90
53520;DHT22;39397;53.204;5.778;2023-04-21T10:10:26;14.70;99.90
53520;DHT22;39397;53.204;5.778;2023-04-21T10:12:53;16.50;99.90
53520;DHT22;39397;53.204;5.778;2023-04-21T10:15:39;16.60;99.90
53520;DHT22;39397;53.204;5.778;2023-04-21T10:18:18;16.60;99.90
53520;DHT22;39397;53.204;5.778;2023-04-21T10:21:09;16.70;99.90
53520;DHT22;39397;53.204;5.778;2023-04-21T10:31:28;17.00;99.90
53520;DHT22;39397;53.204;5.778;2023-04-21T10:39:26;17.00;99.90
53520;DHT22;39397;53.204;5.778;2023-04-21T10:42:18;17.10;99.90
53520;DHT22;39397;53.204;5.778;2023-04-21T10:44:50;17.30;99.90
53520;DHT22;39397;53.204;5.778;2023-04-21T10:47:47;17.50;99.90
53520;DHT22;39397;53.204;5.778;2023-04-21T10:50:19;16.90;99.90
53520;DHT22;39397;53.204;5.778;2023-04-21T10:53:06;17.70;99.90
53520;DHT22;39397;53.204;5.778;2023-04-21T10:55:35;17.70;99.90
53520;DHT22;39397;53.204;5.778;2023-04-21T10:58:04;17.80;99.90
53520;DHT22;39397;53.204;5.778;2023-04-21T11:00:31;18.20;99.90
53520;DHT22;39397;53.204;5.778;2023-04-21T11:03:01;17.80;99.90
53520;DHT22;39397;53.204;5.778;2023-04-21T11:05:34;17.90;99.90
53520;DHT22;39397;53.204;5.778;2023-04-21T11:08:05;18.10;99.90
53520;DHT22;39397;53.204;5.778;2023-04-21T11:10:45;18.00;99.90
53520;DHT22;39397;53.204;5.778;2023-04-21T11:13:11;18.10;99.90
53520;DHT22;39397;53.204;5.778;2023-04-21T11:15:37;18.30;99.90
53520;DHT22;39397;53.204;5.778;2023-04-21T11:18:04;18.30;99.90
53520;DHT22;39397;53.204;5.778;2023-04-21T11:20:29;18.50;99.90
53520;DHT22;39397;53.204;5.778;2023-04-21T11:22:56;18.50;99.90
53520;DHT22;39397;53.204;5.778;2023-04-21T11:25:21;18.50;99.90
53520;DHT22;39397;53.204;5.778;2023-04-21T11:27:55;18.60;99.90
53520;DHT22;39397;53.204;5.778;2023-04-21T11:30:30;18.90;99.90
53520;DHT22;39397;53.204;5.778;2023-04-21T11:32:57;19.20;99.70
53520;DHT22;39397;53.204;5.778;2023-04-21T11:35:22;19.40;99.20
53520;DHT22;39397;53.204;5.778;2023-04-21T11:37:49;19.60;99.00
53520;DHT22;39397;53.204;5.778;2023-04-21T11:40:16;19.70;98.30
53520;DHT22;39397;53.204;5.778;2023-04-21T11:42:43;19.50;97.70
53520;DHT22;39397;53.204;5.778;2023-04-21T11:45:16;19.40;97.70
53520;DHT22;39397;53.204;5.778;2023-04-21T11:47:42;19.40;98.10
53520;DHT22;39397;53.204;5.778;2023-04-21T11:50:08;19.40;97.70
53520;DHT22;39397;53.204;5.778;2023-04-21T11:52:35;19.40;98.00
53520;DHT22;39397;53.204;5.778;2023-04-21T11:55:13;19.50;97.60
53520;DHT22;39397;53.204;5.778;2023-04-21T11:57:40;19.90;97.50
53520;DHT22;39397;53.204;5.778;2023-04-21T12:00:08;20.00;97.10
53520;DHT22;39397;53.204;5.778;2023-04-21T12:02:36;20.10;96.20
53520;DHT22;39397;53.204;5.778;2023-04-21T12:05:07;20.30;96.20
53520;DHT22;39397;53.204;5.778;2023-04-21T12:07:35;20.20;96.20
53520;DHT22;39397;53.204;5.778;2023-04-21T12:10:01;20.30;96.10
53520;DHT22;39397;53.204;5.778;2023-04-21T12:12:36;20.40;95.60
53520;DHT22;39397;53.204;5.778;2023-04-21T12:15:03;20.20;95.50
53520;DHT22;39397;53.204;5.778;2023-04-21T12:17:44;20.50;95.00
53520;DHT22;39397;53.204;5.778;2023-04-21T12:20:10;20.70;94.10
53520;DHT22;39397;53.204;5.778;2023-04-21T12:22:36;21.00;94.20
53520;DHT22;39397;53.204;5.778;2023-04-21T12:25:01;21.10;94.30
53520;DHT22;39397;53.204;5.778;2023-04-21T12:27:27;21.30;93.50
53520;DHT22;39397;53.204;5.778;2023-04-21T12:29:56;21.30;93.50
53520;DHT22;39397;53.204;5.778;2023-04-21T12:32:23;21.20;92.80
53520;DHT22;39397;53.204;5.778;2023-04-21T12:34:49;21.20;92.80
53520;DHT22;39397;53.204;5.778;2023-04-21T12:37:15;21.10;93.00
53520;DHT22;39397;53.204;5.778;2023-04-21T12:39:40;21.10;92.60
53520;DHT22;39397;53.204;5.778;2023-04-21T12:42:06;21.30;92.60
53520;DHT22;39397;53.204;5.778;2023-04-21T12:44:32;21.20;92.20
53520;DHT22;39397;53.204;5.778;2023-04-21T12:46:58;21.40;91.60
53520;DHT22;39397;53.204;5.778;2023-04-21T12:49:24;21.50;91.70
53520;DHT22;39397;53.204;5.778;2023-04-21T12:51:51;21.30;91.20
53520;DHT22;39397;53.204;5.778;2023-04-21T12:54:23;23.90;90.50
53520;DHT22;39397;53.204;5.778;2023-04-21T12:56:48;21.60;90.30
53520;DHT22;39397;53.204;5.778;2023-04-21T12:59:14;21.60;90.40
53520;DHT22;39397;53.204;5.778;2023-04-21T13:01:40;21.40;90.50
53520;DHT22;39397;53.204;5.778;2023-04-21T13:04:07;21.30;90.80
53520;DHT22;39397;53.204;5.778;2023-04-21T13:06:33;21.30;90.60
53520;DHT22;39397;53.204;5.778;2023-04-21T13:09:05;21.40;89.10
53520;DHT22;39397;53.204;5.778;2023-04-21T13:11:31;21.30;88.50
53520;DHT22;39397;53.204;5.778;2023-04-21T13:13:57;21.10;88.10
53520;DHT22;39397;53.204;5.778;2023-04-21T13:16:23;21.00;87.70
53520;DHT22;39397;53.204;5.778;2023-04-21T13:18:48;20.80;87.80
53520;DHT22;39397;53.204;5.778;2023-04-21T13:21:14;20.70;88.10
53520;DHT22;39397;53.204;5.778;2023-04-21T13:23:40;20.60;88.70
53520;DHT22;39397;53.204;5.778;2023-04-21T13:26:06;20.30;87.80
53520;DHT22;39397;53.204;5.778;2023-04-21T13:28:32;20.40;88.10
53520;DHT22;39397;53.204;5.778;2023-04-21T13:30:58;20.20;88.10
53520;DHT22;39397;53.204;5.778;2023-04-21T13:33:24;20.00;88.10
53520;DHT22;39397;53.204;5.778;2023-04-21T13:35:50;19.90;88.50
53520;DHT22;39397;53.204;5.778;2023-04-21T13:38:16;19.70;88.70
53520;DHT22;39397;53.204;5.778;2023-04-21T13:40:44;19.60;87.80
53520;DHT22;39397;53.204;5.778;2023-04-21T13:43:10;19.80;88.40
53520;DHT22;39397;53.204;5.778;2023-04-21T13:45:36;19.60;88.30
53520;DHT22;39397;53.204;5.778;2023-04-21T13:48:03;19.60;88.10
53520;DHT22;39397;53.204;5.778;2023-04-21T13:50:28;19.70;87.90
53520;DHT22;39397;53.204;5.778;2023-04-21T13:52:54;19.70;87.60
53520;DHT22;39397;53.204;5.778;2023-04-21T13:55:20;19.50;87.40
53520;DHT22;39397;53.204;5.778;2023-04-21T13:57:45;19.60;87.50
53520;DHT22;39397;53.204;5.778;2023-04-21T14:00:11;19.50;87.60
53520;DHT22;39397;53.204;5.778;2023-04-21T14:02:38;19.40;87.30
53520;DHT22;39397;53.204;5.778;2023-04-21T14:05:04;19.60;88.20
53520;DHT22;39397;53.204;5.778;2023-04-21T14:07:32;19.90;87.50
53520;DHT22;39397;53.204;5.778;2023-04-21T14:10:00;19.90;87.60
53520;DHT22;39397;53.204;5.778;2023-04-21T14:12:25;20.00;87.70
53520;DHT22;39397;53.204;5.778;2023-04-21T14:14:51;20.00;88.00
53520;DHT22;39397;53.204;5.778;2023-04-21T14:17:17;20.20;88.20
53520;DHT22;39397;53.204;5.778;2023-04-21T14:19:43;20.20;90.00
53520;DHT22;39397;53.204;5.778;2023-04-21T14:22:08;20.20;90.90
53520;DHT22;39397;53.204;5.778;2023-04-21T14:24:34;20.50;91.50
53520;DHT22;39397;53.204;5.778;2023-04-21T14:27:03;20.70;91.60
53520;DHT22;39397;53.204;5.778;2023-04-21T14:29:30;20.80;91.40
53520;DHT22;39397;53.204;5.778;2023-04-21T14:31:55;20.80;91.60
53520;DHT22;39397;53.204;5.778;2023-04-21T14:34:26;20.70;91.40
53520;DHT22;39397;53.204;5.778;2023-04-21T14:36:52;20.70;92.20
53520;DHT22;39397;53.204;5.778;2023-04-21T14:39:17;20.80;91.80
53520;DHT22;39397;53.204;5.778;2023-04-21T14:41:43;20.90;91.90
53520;DHT22;39397;53.204;5.778;2023-04-21T14:44:09;20.80;92.10
53520;DHT22;39397;53.204;5.778;2023-04-21T14:46:36;20.80;92.40
53520;DHT22;39397;53.204;5.778;2023-04-21T14:49:08;20.90;92.40
53520;DHT22;39397;53.204;5.778;2023-04-21T14:51:34;20.30;93.10
53520;DHT22;39397;53.204;5.778;2023-04-21T14:53:59;21.00;93.70
53520;DHT22;39397;53.204;5.778;2023-04-21T14:56:25;20.80;93.10
53520;DHT22;39397;53.204;5.778;2023-04-21T14:58:51;20.70;93.20
53520;DHT22;39397;53.204;5.778;2023-04-21T15:01:17;20.50;93.40
53520;DHT22;39397;53.204;5.778;2023-04-21T15:03:42;20.40;93.90
53520;DHT22;39397;53.204;5.778;2023-04-21T15:06:08;20.60;94.20
53520;DHT22;39397;53.204;5.778;2023-04-21T15:08:34;20.30;93.60
53520;DHT22;39397;53.204;5.778;2023-04-21T15:11:00;20.90;93.40
53520;DHT22;39397;53.204;5.778;2023-04-21T15:13:26;21.00;92.90
53520;DHT22;39397;53.204;5.778;2023-04-21T15:15:51;21.10;92.90
53520;DHT22;39397;53.204;5.778;2023-04-21T15:18:17;21.30;92.30
53520;DHT22;39397;53.204;5.778;2023-04-21T15:20:43;21.30;92.40
53520;DHT22;39397;53.204;5.778;2023-04-21T15:23:10;21.60;92.00
53520;DHT22;39397;53.204;5.778;2023-04-21T15:25:36;21.80;91.80
53520;DHT22;39397;53.204;5.778;2023-04-21T15:28:02;22.40;91.20
53520;DHT22;39397;53.204;5.778;2023-04-21T15:30:28;22.80;90.80
53520;DHT22;39397;53.204;5.778;2023-04-21T15:32:53;23.30;90.30
53520;DHT22;39397;53.204;5.778;2023-04-21T15:35:19;23.70;89.10
53520;DHT22;39397;53.204;5.778;2023-04-21T15:37:45;23.90;87.30
53520;DHT22;39397;53.204;5.778;2023-04-21T15:40:11;24.00;84.40
53520;DHT22;39397;53.204;5.778;2023-04-21T15:42:36;24.00;79.30
53520;DHT22;39397;53.204;5.778;2023-04-21T15:45:02;23.80;78.40
53520;DHT22;39397;53.204;5.778;2023-04-21T15:47:29;23.40;76.50
53520;DHT22;39397;53.204;5.778;2023-04-21T15:49:54;23.00;76.50